Time;durP1;ratioP1;P1;durP2;ratioP2;P2;SDS_P1;SDS_P2;PMS_P1;PMS_P2;Temp;Humidity;BMP_temperature;BMP_pressure;BME280_temperature;BME280_humidity;BME280_pressure;Samples;Min_cycle;Max_cycle;Signal;HPM_P1;HPM_P2
2022/01/04 00:01:58;;;;;;;16.30;2.70;;;8.00;99.90;;;;;;5084825;28;20052;-81
2022/01/04 00:04:25;;;;;;;13.88;2.50;;;8.70;99.90;;;;;;5082361;28;20067;-81
2022/01/04 00:06:51;;;;;;;17.33;2.58;;;7.90;99.90;;;;;;5065170;28;20501;-81
2022/01/04 00:09:16;;;;;;;21.75;2.83;;;9.40;99.90;;;;;;5049991;28;20123;-81
2022/01/04 00:14:08;;;;;;;18.00;2.28;;;7.90;99.90;;;;;;5065107;28;20070;-81
2022/01/04 00:16:34;;;;;;;30.33;3.35;;;7.90;99.90;;;;;;5065800;28;20051;-81
2022/01/04 00:19:00;;;;;;;14.20;2.47;;;8.90;99.90;;;;;;5050660;28;20052;-81
2022/01/04 00:21:27;;;;;;;17.42;2.65;;;7.80;99.90;;;;;;5065389;28;20174;-81
2022/01/04 00:23:53;;;;;;;18.52;2.40;;;8.70;99.90;;;;;;5033312;28;20597;-81
2022/01/04 00:26:19;;;;;;;13.85;2.38;;;7.80;99.90;;;;;;5066662;28;20036;-81
2022/01/04 00:28:44;;;;;;;17.38;2.88;;;7.70;99.90;;;;;;5050789;28;20048;-81
2022/01/04 00:31:10;;;;;;;12.63;2.45;;;7.70;99.90;;;;;;5064399;28;20214;-81
2022/01/04 00:33:37;;;;;;;18.30;3.33;;;7.70;99.90;;;;;;5066790;28;20865;-81
2022/01/04 00:36:03;;;;;;;22.73;3.55;;;7.70;99.90;;;;;;5067047;28;20040;-81
2022/01/04 00:38:29;;;;;;;18.55;2.72;;;7.70;99.90;;;;;;5033294;28;20078;-81
2022/01/04 00:40:55;;;;;;;23.92;3.10;;;7.70;99.90;;;;;;5085589;28;20040;-81
2022/01/04 00:43:21;;;;;;;16.23;2.88;;;8.90;99.90;;;;;;5084691;28;20036;-81
2022/01/04 00:45:47;;;;;;;22.23;2.60;;;8.20;99.90;;;;;;5083541;28;20048;-81
2022/01/04 00:50:38;;;;;;;22.75;2.92;;;7.70;99.90;;;;;;5084417;28;20048;-81
2022/01/04 00:53:05;;;;;;;14.48;2.67;;;8.60;99.90;;;;;;5066777;28;20514;-81
2022/01/04 00:55:31;;;;;;;20.40;3.58;;;7.70;99.90;;;;;;5082877;28;20105;-81
2022/01/04 00:57:57;;;;;;;14.85;2.75;;;8.80;99.90;;;;;;5083376;28;20052;-81
2022/01/04 01:00:23;;;;;;;13.88;2.60;;;7.70;99.90;;;;;;5084605;28;20040;-81
2022/01/04 01:02:49;;;;;;;18.45;3.15;;;7.80;99.90;;;;;;5085387;28;20044;-81
2022/01/04 01:05:16;;;;;;;31.13;4.00;;;7.70;99.90;;;;;;5081172;28;20088;-81
2022/01/04 01:07:42;;;;;;;19.48;3.28;;;7.70;99.90;;;;;;5047733;28;20043;-81
2022/01/04 01:12:55;;;;;;;19.45;3.50;;;8.70;99.90;;;;;;5064251;28;20052;-81
2022/01/04 01:15:21;;;;;;;25.35;3.83;;;8.70;99.90;;;;;;5047193;28;20067;-81
2022/01/04 01:17:47;;;;;;;24.73;4.07;;;7.70;99.90;;;;;;5032284;28;20084;-81
2022/01/04 01:20:14;;;;;;;19.92;3.65;;;7.70;99.90;;;;;;5083315;28;20044;-81
2022/01/04 01:22:40;;;;;;;20.33;4.10;;;7.70;99.90;;;;;;5065737;28;20032;-81
2022/01/04 01:25:07;;;;;;;20.48;3.42;;;9.00;99.90;;;;;;5066303;28;20059;-81
2022/01/04 01:27:33;;;;;;;22.35;3.70;;;7.70;99.90;;;;;;5066471;28;20055;-81
2022/01/04 01:29:59;;;;;;;16.73;3.70;;;7.70;99.90;;;;;;5066185;28;20043;-81
2022/01/04 01:32:25;;;;;;;16.70;4.22;;;7.80;99.90;;;;;;5084236;28;20036;-81
2022/01/04 01:34:50;;;;;;;25.45;3.65;;;8.80;99.90;;;;;;5065292;28;20040;-81
2022/01/04 01:37:16;;;;;;;19.38;4.32;;;7.80;99.90;;;;;;5084175;28;20044;-81
2022/01/04 01:39:42;;;;;;;13.73;3.25;;;7.80;99.90;;;;;;5048853;28;20040;-81
2022/01/04 01:42:08;;;;;;;21.75;4.22;;;7.80;99.90;;;;;;5084259;28;20089;-81
2022/01/04 01:44:36;;;;;;;24.25;3.95;;;7.80;99.90;;;;;;5084601;28;20105;-81
2022/01/04 01:47:02;;;;;;;24.90;4.70;;;7.80;99.90;;;;;;5083821;28;20044;-81
2022/01/04 01:49:28;;;;;;;21.92;4.32;;;7.80;99.90;;;;;;5084698;28;20039;-81
2022/01/04 01:51:54;;;;;;;20.33;3.75;;;7.80;99.90;;;;;;5083790;28;20039;-81
2022/01/04 01:54:20;;;;;;;22.90;4.43;;;7.80;99.90;;;;;;5084048;28;20044;-81
2022/01/04 01:56:46;;;;;;;22.48;3.67;;;7.90;99.90;;;;;;5065466;28;20071;-81
2022/01/04 01:59:15;;;;;;;18.17;4.10;;;8.10;99.90;;;;;;5084305;28;20533;-81
2022/01/04 02:01:41;;;;;;;17.55;3.33;;;7.90;99.90;;;;;;5066282;28;20048;-81
2022/01/04 02:04:07;;;;;;;23.58;4.03;;;7.90;99.90;;;;;;5083946;28;20394;-81
2022/01/04 02:06:33;;;;;;;25.52;4.15;;;7.90;99.90;;;;;;5084341;28;20036;-81
2022/01/04 02:09:01;;;;;;;20.58;3.55;;;7.90;99.90;;;;;;5083741;28;20040;-81
2022/01/04 02:11:29;;;;;;;20.17;3.30;;;8.10;99.90;;;;;;5084206;28;20476;-81
2022/01/04 02:13:59;;;;;;;15.02;3.85;;;8.00;99.90;;;;;;5083525;28;20048;-81
2022/01/04 02:16:26;;;;;;;23.02;4.05;;;7.90;99.90;;;;;;5083992;28;20062;-81
2022/01/04 02:18:52;;;;;;;15.90;3.65;;;7.90;99.90;;;;;;5086132;28;20056;-81
2022/01/04 02:21:18;;;;;;;17.80;3.55;;;7.90;99.90;;;;;;5069289;28;20083;-81
2022/01/04 02:23:44;;;;;;;20.38;4.05;;;9.40;99.90;;;;;;5088180;28;20125;-81
2022/01/04 02:26:09;;;;;;;21.27;3.83;;;7.90;99.90;;;;;;5069545;28;20097;-81
2022/01/04 02:28:35;;;;;;;24.08;3.78;;;7.90;99.90;;;;;;5069813;28;20051;-81
2022/01/04 02:31:01;;;;;;;22.83;3.72;;;7.90;99.90;;;;;;5087496;28;20055;-81
2022/01/04 02:33:27;;;;;;;14.55;3.78;;;8.00;99.90;;;;;;5069741;28;20422;-81
2022/01/04 02:35:53;;;;;;;22.63;3.72;;;9.20;99.90;;;;;;5088190;28;20048;-81
2022/01/04 02:38:19;;;;;;;21.92;3.60;;;7.90;99.90;;;;;;5069140;28;20044;-81
2022/01/04 02:40:44;;;;;;;19.20;3.40;;;7.90;99.90;;;;;;5087904;28;20036;-81
2022/01/04 02:43:10;;;;;;;22.15;4.30;;;7.90;99.90;;;;;;5087059;28;20036;-81
2022/01/04 02:45:36;;;;;;;30.00;3.75;;;7.90;99.90;;;;;;5087453;28;20066;-81
2022/01/04 02:48:02;;;;;;;17.42;3.50;;;8.40;99.90;;;;;;5086980;28;20101;-81
2022/01/04 02:50:28;;;;;;;15.25;3.33;;;7.90;99.90;;;;;;5087545;28;20052;-81
2022/01/04 02:52:55;;;;;;;23.33;4.05;;;8.60;99.90;;;;;;5087630;28;20051;-81
2022/01/04 02:55:21;;;;;;;15.25;3.58;;;7.90;99.90;;;;;;5087070;28;20043;-81
2022/01/04 02:57:47;;;;;;;14.65;2.53;;;7.90;99.90;;;;;;5087911;28;20052;-81
2022/01/04 03:00:16;;;;;;;24.23;3.83;;;7.90;99.90;;;;;;5087047;28;20174;-81
2022/01/04 03:02:42;;;;;;;15.57;3.47;;;7.90;99.90;;;;;;5068970;28;20040;-81
2022/01/04 03:05:09;;;;;;;29.52;3.63;;;7.90;99.90;;;;;;5086634;28;20040;-82
2022/01/04 03:07:35;;;;;;;24.73;3.88;;;8.20;99.90;;;;;;5087424;28;20123;-81
2022/01/04 03:10:01;;;;;;;19.60;3.58;;;9.20;99.90;;;;;;5069316;28;20162;-81
2022/01/04 03:12:26;;;;;;;16.88;3.35;;;8.00;99.90;;;;;;5068542;28;20043;-81
2022/01/04 03:14:52;;;;;;;22.20;4.22;;;8.50;99.90;;;;;;5068594;28;20051;-81
2022/01/04 03:17:18;;;;;;;16.35;3.90;;;9.30;99.90;;;;;;5086443;28;20141;-81
2022/01/04 03:19:43;;;;;;;14.45;3.30;;;8.00;99.90;;;;;;5087183;28;20381;-81
2022/01/04 03:22:09;;;;;;;19.20;3.85;;;8.00;99.90;;;;;;5086374;28;20136;-81
2022/01/04 03:24:35;;;;;;;20.15;3.72;;;8.50;99.90;;;;;;5087117;28;20134;-81
2022/01/04 03:27:00;;;;;;;20.30;3.42;;;8.00;99.90;;;;;;5086980;28;20063;-81
2022/01/04 03:29:26;;;;;;;24.05;3.92;;;8.10;99.90;;;;;;5084880;28;20048;-81
2022/01/04 03:31:54;;;;;;;16.42;3.20;;;8.10;99.90;;;;;;5087190;28;20421;-81
2022/01/04 03:34:20;;;;;;;25.52;3.75;;;8.10;99.90;;;;;;5068374;28;20105;-80
2022/01/04 03:36:46;;;;;;;23.25;3.47;;;8.10;99.90;;;;;;5087040;28;20052;-81
2022/01/04 03:39:12;;;;;;;14.35;3.70;;;8.30;99.90;;;;;;5086242;28;20119;-81
2022/01/04 03:41:40;;;;;;;26.33;4.47;;;8.10;99.90;;;;;;5086471;28;20470;-81
2022/01/04 03:44:08;;;;;;;29.10;4.20;;;8.10;99.90;;;;;;5086219;28;20044;-81
2022/01/04 03:46:34;;;;;;;21.02;3.67;;;8.10;99.90;;;;;;5086272;28;20373;-81
2022/01/04 03:48:59;;;;;;;21.60;3.47;;;8.20;99.90;;;;;;5086389;28;20047;-80
2022/01/04 03:51:25;;;;;;;23.67;3.67;;;8.40;99.90;;;;;;5086185;28;20055;-81
2022/01/04 03:53:51;;;;;;;18.55;3.72;;;8.20;99.90;;;;;;5086489;28;20036;-81
2022/01/04 03:56:17;;;;;;;23.25;4.28;;;8.20;99.90;;;;;;5067520;28;20446;-81
2022/01/04 03:58:43;;;;;;;28.90;3.75;;;8.10;99.90;;;;;;5086288;28;20047;-81
2022/01/04 04:01:08;;;;;;;22.23;3.72;;;8.20;99.90;;;;;;5085893;28;20517;-81
2022/01/04 04:03:34;;;;;;;25.23;3.47;;;8.10;99.90;;;;;;5085943;28;20044;-81
2022/01/04 04:06:00;;;;;;;21.27;3.72;;;8.10;99.90;;;;;;5086556;28;20052;-81
2022/01/04 04:08:26;;;;;;;16.33;3.05;;;8.40;99.90;;;;;;5085973;28;20040;-81
2022/01/04 04:10:53;;;;;;;15.57;2.75;;;8.10;99.90;;;;;;5086173;28;20435;-81
2022/01/04 04:13:18;;;;;;;26.02;4.05;;;8.10;99.90;;;;;;5085578;28;20044;-81
2022/01/04 04:15:44;;;;;;;18.23;3.67;;;8.10;99.90;;;;;;5085737;28;20046;-81
2022/01/04 04:18:11;;;;;;;17.70;3.33;;;8.10;99.90;;;;;;5085369;28;20052;-81
2022/01/04 04:20:38;;;;;;;23.23;3.35;;;8.10;99.90;;;;;;5085607;28;20432;-81
2022/01/04 04:23:04;;;;;;;11.85;3.38;;;8.10;99.90;;;;;;5085795;28;20150;-81
2022/01/04 04:25:31;;;;;;;20.90;3.92;;;8.10;99.90;;;;;;5085392;28;20075;-81
2022/01/04 04:27:56;;;;;;;18.27;3.20;;;9.30;99.90;;;;;;5085739;28;20055;-81
2022/01/04 04:30:22;;;;;;;26.45;4.38;;;8.10;99.90;;;;;;5084857;28;20047;-81
2022/01/04 04:32:48;;;;;;;15.43;3.50;;;8.10;99.90;;;;;;5085839;28;20071;-81
2022/01/04 04:35:14;;;;;;;23.85;4.55;;;8.10;99.90;;;;;;5084847;28;20513;-81
2022/01/04 04:37:40;;;;;;;25.15;3.75;;;8.20;99.90;;;;;;5085460;28;20097;-81
2022/01/04 04:40:07;;;;;;;19.40;4.05;;;8.20;99.90;;;;;;5085250;28;20059;-81
2022/01/04 04:42:33;;;;;;;23.95;4.03;;;8.10;99.90;;;;;;5084630;28;20557;-81
2022/01/04 04:44:59;;;;;;;24.48;4.30;;;8.30;99.90;;;;;;5085722;28;20044;-81
2022/01/04 04:47:24;;;;;;;20.88;3.35;;;8.80;99.90;;;;;;5085100;28;20059;-81
2022/01/04 04:49:50;;;;;;;14.88;4.15;;;8.10;99.90;;;;;;5085208;28;20489;-81
2022/01/04 04:52:16;;;;;;;20.92;3.63;;;8.20;99.90;;;;;;5084773;28;20059;-81
2022/01/04 04:54:42;;;;;;;26.25;4.78;;;8.10;99.90;;;;;;5084782;28;20123;-81
2022/01/04 04:57:07;;;;;;;16.85;4.00;;;8.10;99.90;;;;;;5085431;28;20044;-81
2022/01/04 04:59:33;;;;;;;29.48;4.60;;;8.40;99.90;;;;;;5084536;28;20048;-81
2022/01/04 05:01:58;;;;;;;19.58;3.78;;;8.10;99.90;;;;;;5084931;28;20101;-81
2022/01/04 05:04:25;;;;;;;25.15;5.13;;;8.10;99.90;;;;;;5084774;28;20070;-81
2022/01/04 05:06:52;;;;;;;15.90;5.63;;;8.10;99.90;;;;;;5084988;28;20040;-81
2022/01/04 05:09:17;;;;;;;28.25;5.68;;;8.10;99.90;;;;;;5084470;28;20048;-81
2022/01/04 05:11:43;;;;;;;22.88;4.72;;;8.10;99.90;;;;;;5066252;28;20086;-81
2022/01/04 05:14:10;;;;;;;25.38;5.68;;;8.00;99.90;;;;;;5066569;28;20510;-81
2022/01/04 05:16:35;;;;;;;19.10;4.25;;;8.10;99.90;;;;;;5065984;28;20130;-81
2022/01/04 05:19:02;;;;;;;19.63;4.55;;;8.10;99.90;;;;;;5049597;28;20092;-81
2022/01/04 05:21:27;;;;;;;20.60;5.43;;;8.10;99.90;;;;;;5084605;28;20097;-81
2022/01/04 05:23:54;;;;;;;13.48;4.50;;;8.10;99.90;;;;;;5066453;28;20044;-81
2022/01/04 05:26:20;;;;;;;24.10;4.97;;;8.10;99.90;;;;;;5049465;28;20062;-81
2022/01/04 05:28:46;;;;;;;15.38;4.70;;;8.10;99.90;;;;;;5016256;28;20086;-81
2022/01/04 05:31:13;;;;;;;24.35;4.72;;;8.90;99.90;;;;;;5065907;28;20079;-80
2022/01/04 05:33:39;;;;;;;13.73;4.20;;;8.10;99.90;;;;;;5048866;28;20040;-81
2022/01/04 05:36:04;;;;;;;23.75;6.25;;;8.10;99.90;;;;;;5065969;28;20046;-81
2022/01/04 05:38:30;;;;;;;17.70;4.88;;;8.10;99.90;;;;;;5049319;28;20086;-81
2022/01/04 05:40:56;;;;;;;21.52;4.57;;;8.10;99.90;;;;;;5065989;28;20047;-81
2022/01/04 05:43:21;;;;;;;18.30;4.97;;;8.10;99.90;;;;;;5083851;28;20055;-81
2022/01/04 05:45:47;;;;;;;21.48;5.72;;;8.00;99.90;;;;;;5066436;28;20040;-81
2022/01/04 05:48:13;;;;;;;18.65;5.00;;;8.00;99.90;;;;;;5084250;28;20387;-81
2022/01/04 05:50:39;;;;;;;17.40;5.13;;;8.00;99.90;;;;;;5084035;28;20109;-81
2022/01/04 05:53:06;;;;;;;22.65;6.38;;;7.90;99.90;;;;;;5083821;28;20535;-81
2022/01/04 05:55:32;;;;;;;22.13;5.20;;;8.00;99.90;;;;;;5083906;28;20044;-81
2022/01/04 05:57:57;;;;;;;24.77;5.47;;;8.30;99.90;;;;;;5084243;28;20190;-80
2022/01/04 06:00:23;;;;;;;25.00;5.47;;;7.90;99.90;;;;;;5083895;28;20040;-80
2022/01/04 06:02:49;;;;;;;17.23;5.53;;;7.80;99.90;;;;;;5084015;28;20037;-80
2022/01/04 06:05:14;;;;;;;18.42;5.32;;;7.90;99.90;;;;;;5065737;28;20065;-80
2022/01/04 06:07:40;;;;;;;21.88;5.80;;;7.90;99.90;;;;;;5083498;28;20113;-80
2022/01/04 06:10:08;;;;;;;22.52;5.75;;;9.30;99.90;;;;;;5084349;28;20117;-80
2022/01/04 06:15:15;;;;;;;21.40;6.13;;;7.90;99.90;;;;;;5084366;28;20051;-81
2022/01/04 06:17:43;;;;;;;20.15;5.28;;;7.90;99.90;;;;;;5065163;28;20054;-81
2022/01/04 06:20:11;;;;;;;16.10;5.40;;;7.90;99.90;;;;;;5084235;28;20040;-81
2022/01/04 06:22:37;;;;;;;26.55;5.63;;;7.90;99.90;;;;;;5084388;28;20500;-81
2022/01/04 06:25:04;;;;;;;17.02;5.18;;;7.90;99.90;;;;;;5065294;28;20529;-81
2022/01/04 06:27:30;;;;;;;22.40;5.43;;;8.00;99.90;;;;;;5084335;28;20441;-81
2022/01/04 06:29:57;;;;;;;16.88;5.50;;;7.90;99.90;;;;;;5083261;28;20048;-80
2022/01/04 06:32:23;;;;;;;19.95;5.93;;;8.00;99.90;;;;;;5083917;28;20109;-81
2022/01/04 06:34:49;;;;;;;22.13;5.53;;;7.90;99.90;;;;;;5083819;28;20067;-80
2022/01/04 06:37:15;;;;;;;20.52;5.60;;;7.90;99.90;;;;;;5048652;28;20059;-81
2022/01/04 06:39:43;;;;;;;17.95;5.75;;;7.90;99.90;;;;;;5083633;28;20391;-81
2022/01/04 06:42:11;;;;;;;20.30;5.13;;;8.00;99.90;;;;;;5083178;28;20048;-81
2022/01/04 06:44:38;;;;;;;22.35;4.95;;;8.20;99.90;;;;;;5083820;28;20043;-81
2022/01/04 06:47:04;;;;;;;28.58;4.50;;;8.00;99.90;;;;;;5083184;28;20126;-81
2022/01/04 06:49:30;;;;;;;29.42;4.35;;;8.00;99.90;;;;;;5084020;28;20070;-81
2022/01/04 06:51:56;;;;;;;16.48;4.32;;;8.60;99.90;;;;;;5065592;28;20543;-81
2022/01/04 06:54:22;;;;;;;16.35;3.67;;;9.30;99.90;;;;;;5065898;28;20492;-81
2022/01/04 06:56:49;;;;;;;22.90;3.65;;;8.00;99.90;;;;;;5083464;28;20040;-81
2022/01/04 06:59:16;;;;;;;23.08;4.75;;;8.00;99.90;;;;;;5064604;28;20051;-81
2022/01/04 07:01:41;;;;;;;18.95;3.65;;;8.00;99.90;;;;;;5065979;28;20091;-79
2022/01/04 07:04:07;;;;;;;16.48;3.25;;;8.00;99.90;;;;;;5066001;28;20075;-80
2022/01/04 07:06:34;;;;;;;18.25;4.03;;;7.00;99.90;;;;;;5068625;28;20075;-80
2022/01/04 07:09:00;;;;;;;25.88;3.42;;;8.00;99.90;;;;;;5086884;28;20040;-80
2022/01/04 07:11:26;;;;;;;14.93;2.97;;;8.00;99.90;;;;;;5087244;28;20103;-80
2022/01/04 07:13:51;;;;;;;15.60;3.38;;;8.00;99.90;;;;;;5068777;28;20044;-79
2022/01/04 07:16:17;;;;;;;19.92;3.50;;;9.30;99.90;;;;;;5068332;28;20112;-80
2022/01/04 07:18:48;;;;;;;14.23;2.88;;;8.20;99.90;;;;;;5068177;28;20056;-80
2022/01/04 07:21:15;;;;;;;15.85;2.88;;;8.00;99.90;;;;;;5036134;28;20059;-80
2022/01/04 07:23:41;;;;;;;17.95;3.63;;;8.00;99.90;;;;;;5068732;28;20040;-79
2022/01/04 07:26:11;;;;;;;14.95;3.00;;;8.80;99.90;;;;;;5086133;28;20063;-80
2022/01/04 07:28:46;;;;;;;17.52;3.03;;;7.90;99.90;;;;;;5067839;28;20067;-79
2022/01/04 07:31:14;;;;;;;10.32;3.40;;;8.00;99.90;;;;;;5087166;28;20082;-79
2022/01/04 07:33:40;;;;;;;17.50;2.70;;;8.00;99.90;;;;;;5086346;28;20050;-79
2022/01/04 07:36:06;;;;;;;11.52;2.17;;;8.00;99.90;;;;;;5068375;28;20048;-79
2022/01/04 07:38:33;;;;;;;19.92;3.38;;;8.00;99.90;;;;;;5068457;28;20075;-80
2022/01/04 07:40:59;;;;;;;11.98;2.78;;;8.00;99.90;;;;;;5068120;28;20135;-80
2022/01/04 07:43:24;;;;;;;22.13;3.70;;;7.90;99.90;;;;;;5067427;28;20139;-80
2022/01/04 07:45:50;;;;;;;19.23;2.90;;;8.00;99.90;;;;;;5086015;28;20097;-80
2022/01/04 07:48:16;;;;;;;14.95;3.08;;;7.90;99.90;;;;;;5051716;28;20072;-80
2022/01/04 07:50:41;;;;;;;10.25;2.90;;;7.90;99.90;;;;;;5084145;28;20052;-81
2022/01/04 07:53:08;;;;;;;15.95;2.53;;;7.90;99.90;;;;;;5051410;28;20044;-80
2022/01/04 07:55:34;;;;;;;18.80;3.45;;;8.00;99.90;;;;;;5050356;28;20044;-80
2022/01/04 07:58:00;;;;;;;17.45;3.50;;;8.00;99.90;;;;;;5067665;28;20075;-79
2022/01/04 08:00:27;;;;;;;12.55;3.33;;;7.90;99.90;;;;;;5050628;28;20125;-80
2022/01/04 08:02:54;;;;;;;19.17;3.65;;;8.10;99.90;;;;;;5067572;28;20058;-80
2022/01/04 08:05:20;;;;;;;9.93;2.40;;;7.90;99.90;;;;;;5068103;28;20075;-80
2022/01/04 08:07:46;;;;;;;17.58;2.70;;;7.80;99.90;;;;;;5085588;28;20036;-80
2022/01/04 08:10:12;;;;;;;22.27;3.45;;;7.80;99.90;;;;;;5085767;28;20051;-80
2022/01/04 08:12:39;;;;;;;8.98;2.30;;;9.20;99.90;;;;;;5085889;28;20040;-80
2022/01/04 08:15:06;;;;;;;10.05;2.50;;;7.80;99.90;;;;;;5085800;28;20090;-80
2022/01/04 08:17:32;;;;;;;11.77;2.55;;;7.80;99.90;;;;;;5084499;28;20087;-80
2022/01/04 08:20:01;;;;;;;23.92;3.30;;;7.80;99.90;;;;;;5050769;28;20095;-80
2022/01/04 08:22:31;;;;;;;21.02;2.90;;;7.80;99.90;;;;;;5068269;28;20059;-80
2022/01/04 08:25:00;;;;;;;9.05;1.75;;;7.90;99.90;;;;;;5050830;28;20538;-81
2022/01/04 08:27:26;;;;;;;15.32;2.53;;;7.80;99.90;;;;;;5034928;28;20387;-80
2022/01/04 08:29:52;;;;;;;15.35;3.05;;;8.80;99.90;;;;;;5067213;28;20044;-81
2022/01/04 08:32:18;;;;;;;17.35;2.70;;;7.80;99.90;;;;;;5085839;28;20048;-81
2022/01/04 08:34:44;;;;;;;11.93;2.40;;;9.10;99.90;;;;;;5050492;28;20276;-81
2022/01/04 08:37:09;;;;;;;10.65;2.42;;;7.80;99.90;;;;;;5050507;28;20071;-81
2022/01/04 08:39:35;;;;;;;12.73;2.47;;;7.70;99.90;;;;;;5067377;28;20174;-80
2022/01/04 08:42:02;;;;;;;12.90;2.13;;;7.80;99.90;;;;;;5085128;28;20073;-81
2022/01/04 08:44:28;;;;;;;14.02;2.22;;;7.80;99.90;;;;;;5067185;28;20055;-81
2022/01/04 08:46:54;;;;;;;23.20;3.22;;;7.80;99.90;;;;;;5084861;28;20515;-80
2022/01/04 08:49:20;;;;;;;16.30;2.63;;;9.20;99.90;;;;;;5085529;28;20127;-81
2022/01/04 08:51:46;;;;;;;13.52;2.58;;;7.80;99.90;;;;;;5085365;28;20044;-82
2022/01/04 08:54:13;;;;;;;6.88;1.65;;;8.20;99.90;;;;;;5085218;28;20328;-80
2022/01/04 08:56:38;;;;;;;8.48;1.02;;;7.80;99.90;;;;;;5084941;28;20117;-80
2022/01/04 08:59:05;;;;;;;3.60;0.43;;;7.70;99.90;;;;;;5066130;28;20036;-79
2022/01/04 09:01:32;;;;;;;3.20;0.63;;;7.60;99.90;;;;;;5067249;28;20059;-79
2022/01/04 09:03:58;;;;;;;3.50;0.45;;;7.50;99.90;;;;;;5066447;28;20048;-79
2022/01/04 09:06:24;;;;;;;4.20;0.47;;;7.40;99.90;;;;;;5067150;28;20072;-79
2022/01/04 09:08:54;;;;;;;3.78;0.30;;;7.30;99.90;;;;;;5066387;28;20040;-79
2022/01/04 09:11:21;;;;;;;4.68;0.40;;;7.30;99.90;;;;;;5066332;28;20048;-79
2022/01/04 09:13:53;;;;;;;2.90;0.60;;;7.20;99.90;;;;;;5066567;28;20122;-78
2022/01/04 09:19:03;;;;;;;5.82;0.43;;;7.10;99.90;;;;;;5066963;28;20048;-80
2022/01/04 09:21:29;;;;;;;2.58;0.45;;;7.20;99.90;;;;;;5049289;28;20419;-80
2022/01/04 09:23:59;;;;;;;2.45;0.20;;;7.00;99.90;;;;;;5065977;28;20043;-79
2022/01/04 09:26:27;;;;;;;12.57;0.63;;;7.80;99.90;;;;;;5066410;28;20499;-79
2022/01/04 09:28:54;;;;;;;3.88;0.55;;;7.00;99.90;;;;;;5049097;28;20059;-78
2022/01/04 09:31:22;;;;;;;2.90;0.50;;;7.00;99.90;;;;;;5065827;28;20051;-79
2022/01/04 09:33:48;;;;;;;6.25;0.40;;;7.00;99.90;;;;;;5049147;28;20048;-79
2022/01/04 09:36:13;;;;;;;2.15;0.17;;;7.60;99.90;;;;;;5084630;28;20040;-79
2022/01/04 09:38:39;;;;;;;5.72;0.40;;;7.00;99.90;;;;;;5084067;28;20035;-79
2022/01/04 09:41:05;;;;;;;8.57;0.63;;;7.00;99.90;;;;;;5065754;28;20525;-79
2022/01/04 09:43:31;;;;;;;6.72;0.60;;;7.00;99.90;;;;;;5049592;28;20040;-79
2022/01/04 09:45:57;;;;;;;5.18;0.52;;;7.00;99.90;;;;;;5066023;28;20095;-79
2022/01/04 09:48:23;;;;;;;5.93;0.40;;;7.00;99.90;;;;;;5066041;28;20457;-79
2022/01/04 09:50:49;;;;;;;5.60;1.00;;;6.90;99.90;;;;;;5066036;28;20099;-79
2022/01/04 09:53:19;;;;;;;4.35;0.50;;;6.90;99.90;;;;;;5066144;28;20048;-80
2022/01/04 09:55:56;;;;;;;2.60;0.32;;;6.90;99.90;;;;;;5065333;28;20044;-78
2022/01/04 09:58:24;;;;;;;3.25;0.30;;;6.90;99.90;;;;;;5083978;28;20063;-78
2022/01/04 10:00:51;;;;;;;2.83;0.43;;;7.20;99.90;;;;;;5066019;28;20554;-79
2022/01/04 10:03:25;;;;;;;2.50;0.28;;;6.80;99.90;;;;;;5083976;28;20396;-79
2022/01/04 10:06:03;;;;;;;4.80;0.73;;;7.50;99.90;;;;;;5049782;28;20040;-77
2022/01/04 10:08:29;;;;;;;0.95;0.20;;;6.70;99.90;;;;;;5065997;28;20124;-78
2022/01/04 10:11:04;;;;;;;2.88;0.55;;;6.70;99.90;;;;;;5065928;28;20527;-77
2022/01/04 10:13:30;;;;;;;4.47;0.30;;;6.50;99.90;;;;;;5066133;28;20036;-78
2022/01/04 10:15:56;;;;;;;1.33;0.32;;;7.30;99.90;;;;;;5083790;28;20395;-78
2022/01/04 10:18:25;;;;;;;4.03;0.17;;;6.40;99.90;;;;;;5083930;28;20052;-76
2022/01/04 10:21:12;;;;;;;2.08;0.10;;;6.30;99.90;;;;;;5083483;28;20048;-79
2022/01/04 10:23:55;;;;;;;2.45;0.25;;;6.30;99.90;;;;;;5084323;28;20052;-79
2022/01/04 10:26:49;;;;;;;1.17;0.10;;;6.20;99.90;;;;;;5084269;28;20044;-78
2022/01/04 10:29:20;;;;;;;3.83;0.32;;;6.20;99.90;;;;;;5080136;28;20084;-78
2022/01/04 10:31:47;;;;;;;1.27;0.20;;;6.20;99.90;;;;;;5084272;28;20403;-78
2022/01/04 10:34:12;;;;;;;0.65;0.10;;;6.20;99.90;;;;;;5083286;28;20047;-79
2022/01/04 10:36:39;;;;;;;2.90;0.40;;;6.20;99.90;;;;;;5083901;28;20056;-79
2022/01/04 10:39:09;;;;;;;1.60;0.20;;;6.20;99.90;;;;;;5066870;28;20127;-79
2022/01/04 10:41:35;;;;;;;2.45;0.32;;;6.20;99.90;;;;;;5087528;28;20051;-78
2022/01/04 10:44:08;;;;;;;2.35;0.43;;;6.30;99.90;;;;;;5087823;28;20044;-79
2022/01/04 10:46:38;;;;;;;;;;;6.30;99.90;;;;;;5088088;28;20123;-78
2022/01/04 10:49:20;;;;;;;4.85;0.40;;;6.40;99.90;;;;;;5087913;28;19965;-77
2022/01/04 10:52:02;;;;;;;7.32;0.52;;;6.40;99.90;;;;;;5087717;28;20082;-78
2022/01/04 10:54:28;;;;;;;4.43;0.30;;;6.30;99.90;;;;;;5069246;28;20459;-78
2022/01/04 10:57:07;;;;;;;5.05;0.38;;;6.30;99.90;;;;;;5069411;28;20079;-78
2022/01/04 10:59:33;;;;;;;1.33;0.20;;;6.30;99.90;;;;;;5068596;28;20040;-78
2022/01/04 11:01:59;;;;;;;0.95;0.22;;;6.20;99.90;;;;;;5069014;28;20066;-79
2022/01/04 11:04:24;;;;;;;0.10;0.10;;;6.20;99.90;;;;;;5068732;28;20040;-79
2022/01/04 11:06:59;;;;;;;1.52;0.28;;;6.20;99.90;;;;;;5052147;28;20048;-79
2022/01/04 11:09:25;;;;;;;2.45;0.40;;;6.10;99.90;;;;;;5068984;28;20055;-79
2022/01/04 11:11:51;;;;;;;5.20;0.38;;;6.10;99.90;;;;;;5086998;28;20040;-79
2022/01/04 11:14:17;;;;;;;2.10;0.38;;;7.00;99.90;;;;;;5087137;28;20100;-79
2022/01/04 11:16:43;;;;;;;5.22;0.30;;;6.10;99.90;;;;;;5086448;28;20495;-79
2022/01/04 11:19:09;;;;;;;3.28;0.28;;;6.00;99.90;;;;;;5086623;28;20059;-79
2022/01/04 11:21:42;;;;;;;4.22;0.95;;;5.90;99.90;;;;;;5087274;28;20051;-78
2022/01/04 11:24:12;;;;;;;6.03;0.63;;;5.90;99.90;;;;;;5068386;28;20066;-78
2022/01/04 11:26:43;;;;;;;6.00;0.75;;;6.80;99.90;;;;;;5068595;28;20044;-76
2022/01/04 11:29:09;;;;;;;5.50;0.47;;;6.00;99.90;;;;;;5086211;28;20044;-78
2022/01/04 11:31:54;;;;;;;7.55;0.35;;;6.10;99.90;;;;;;5086717;28;20058;-76
2022/01/04 11:34:41;;;;;;;6.80;0.28;;;6.10;99.90;;;;;;5088349;28;20207;-77
2022/01/04 11:37:15;;;;;;;7.82;0.55;;;6.20;99.90;;;;;;5086507;28;20072;-78
2022/01/04 11:39:41;;;;;;;3.33;1.35;;;6.20;99.90;;;;;;5086261;28;20032;-85
2022/01/04 11:42:10;;;;;;;2.53;0.30;;;6.20;99.90;;;;;;5051698;28;20503;-82
2022/01/04 11:44:44;;;;;;;1.50;0.20;;;6.20;99.90;;;;;;5068054;28;20475;-81
2022/01/04 11:47:15;;;;;;;1.60;0.30;;;6.80;99.90;;;;;;5067699;28;20036;-80
2022/01/04 11:50:03;;;;;;;1.10;0.22;;;7.60;99.90;;;;;;5067787;28;20067;-80
2022/01/04 11:52:47;;;;;;;0.98;0.40;;;6.20;99.90;;;;;;5086112;28;20154;-80
2022/01/04 11:55:17;;;;;;;2.65;0.20;;;6.30;99.90;;;;;;5085747;28;20051;-80
2022/01/04 11:57:43;;;;;;;4.25;0.55;;;6.50;99.90;;;;;;5086469;28;20407;-81
2022/01/04 12:00:09;;;;;;;6.93;0.50;;;6.30;99.90;;;;;;5068134;28;20036;-80
2022/01/04 12:02:38;;;;;;;1.20;0.30;;;6.30;99.90;;;;;;5067105;28;20043;-80
2022/01/04 12:05:22;;;;;;;1.50;0.30;;;7.00;99.90;;;;;;5086190;28;20047;-80
2022/01/04 12:07:50;;;;;;;6.30;0.93;;;6.70;99.90;;;;;;5067671;28;20059;-80
2022/01/04 12:10:22;;;;;;;1.30;0.17;;;6.50;99.90;;;;;;5086176;28;20048;-80
2022/01/04 12:13:11;;;;;;;2.03;0.32;;;6.40;99.90;;;;;;5085813;28;20052;-80
2022/01/04 12:15:37;;;;;;;1.05;0.32;;;6.40;99.90;;;;;;5085642;28;20036;-80
2022/01/04 12:18:31;;;;;;;4.57;0.43;;;6.40;99.90;;;;;;5085819;28;20446;-80
2022/01/04 12:21:00;;;;;;;3.63;0.63;;;6.40;99.90;;;;;;5048481;28;20044;-80
2022/01/04 12:23:33;;;;;;;4.78;0.50;;;6.50;99.90;;;;;;5085887;28;20036;-80
2022/01/04 12:26:04;;;;;;;5.53;0.52;;;6.40;99.90;;;;;;5085862;28;20048;-80
2022/01/04 12:28:30;;;;;;;9.25;0.40;;;6.40;99.90;;;;;;5085041;28;20101;-80
2022/01/04 12:31:17;;;;;;;6.28;0.50;;;6.40;99.90;;;;;;5067338;28;20082;-80
2022/01/04 12:34:23;;;;;;;2.67;0.50;;;6.60;99.90;;;;;;5067641;28;20063;-80
2022/01/04 12:36:49;;;;;;;4.82;0.70;;;6.30;99.90;;;;;;5066646;28;20163;-80
2022/01/04 12:39:20;;;;;;;3.95;0.57;;;6.30;99.90;;;;;;5067219;28;20044;-80
2022/01/04 12:41:47;;;;;;;3.78;0.47;;;6.30;99.90;;;;;;5066675;28;20083;-80
2022/01/04 12:44:25;;;;;;;3.55;0.60;;;6.60;99.90;;;;;;5085633;28;20048;-80
2022/01/04 12:46:52;;;;;;;2.05;0.32;;;7.00;99.90;;;;;;5066559;28;20432;-80
2022/01/04 12:49:20;;;;;;;3.50;0.43;;;6.20;99.90;;;;;;5085226;28;20044;-81
2022/01/04 12:51:47;;;;;;;4.53;0.88;;;6.20;99.90;;;;;;5085652;28;20381;-80
2022/01/04 12:54:17;;;;;;;3.85;0.55;;;7.50;99.90;;;;;;5084904;28;20044;-80
2022/01/04 12:57:11;;;;;;;3.55;0.50;;;6.10;99.90;;;;;;5085216;28;20039;-80
2022/01/04 13:00:05;;;;;;;3.00;0.75;;;6.20;99.90;;;;;;5066065;28;20086;-81
2022/01/04 13:02:32;;;;;;;3.80;0.40;;;6.20;99.90;;;;;;5063078;28;20058;-80
2022/01/04 13:05:00;;;;;;;2.42;0.60;;;6.20;99.90;;;;;;5049932;28;20668;-79
2022/01/04 13:07:34;;;;;;;4.18;0.60;;;4.30;99.90;;;;;;5084291;28;20053;-79